createdAt,value
2019-01-17T00:03:36.571Z,53.05
2019-01-17T00:07:54.906Z,53.08
2019-01-17T00:12:03.904Z,53.01
2019-01-17T00:16:22.255Z,52.80
2019-01-17T00:20:44.865Z,52.51
2019-01-17T00:25:06.084Z,52.68
2019-01-17T00:29:27.761Z,52.37
2019-01-17T00:33:36.789Z,52.60
2019-01-17T00:37:52.377Z,52.28
2019-01-17T00:41:58.690Z,52.62
2019-01-17T00:46:13.571Z,52.80
2019-01-17T00:50:19.983Z,53.08
2019-01-17T00:54:42.527Z,53.11
2019-01-17T00:58:54.726Z,53.33
2019-01-17T01:03:06.922Z,53.40
2019-01-17T01:07:13.258Z,53.85
2019-01-17T01:11:19.594Z,54.39
2019-01-17T01:15:42.277Z,54.91
2019-01-17T01:20:05.084Z,55.30
2019-01-17T01:24:15.434Z,55.61
2019-01-17T01:28:25.240Z,55.97
2019-01-17T01:32:43.750Z,56.02
2019-01-17T01:36:50.082Z,56.18
2019-01-17T01:41:05.675Z,56.27
2019-01-17T01:45:14.996Z,56.16
2019-01-17T01:49:24.107Z,56.31
2019-01-17T01:53:28.796Z,56.43
2019-01-17T01:57:33.506Z,56.31
2019-01-17T02:01:38.193Z,56.30
2019-01-17T02:05:42.889Z,56.41
2019-01-17T02:09:47.622Z,56.56
2019-01-17T02:13:52.312Z,56.46
2019-01-17T02:17:56.999Z,56.54
2019-01-17T02:22:01.745Z,56.60
2019-01-17T02:26:06.468Z,56.83
2019-01-17T02:30:12.219Z,57.19
2019-01-17T02:34:16.918Z,57.61
2019-01-17T02:38:21.605Z,58.09
2019-01-17T02:42:26.294Z,58.30
2019-01-17T02:46:30.976Z,58.69
2019-01-17T02:50:35.649Z,59.10
2019-01-17T02:54:40.327Z,59.58
2019-01-17T02:58:45.013Z,60.01
2019-01-17T03:02:49.704Z,60.39
2019-01-17T03:06:54.391Z,61.35
2019-01-17T03:10:59.086Z,61.62
2019-01-17T03:15:05.198Z,61.36
2019-01-17T03:19:09.877Z,61.54
2019-01-17T03:23:14.575Z,61.86
2019-01-17T03:27:19.308Z,61.94
2019-01-17T03:31:23.944Z,62.12
2019-01-17T03:35:28.620Z,62.51
2019-01-17T03:39:33.310Z,63.09
2019-01-17T03:43:37.985Z,63.43
2019-01-17T03:47:42.665Z,63.53
2019-01-17T03:51:47.357Z,63.64
2019-01-17T03:55:52.305Z,64.04
2019-01-17T03:59:56.986Z,64.11
2019-01-17T04:04:01.654Z,64.01
2019-01-17T04:08:06.328Z,63.92
2019-01-17T04:12:11.028Z,63.92
2019-01-17T04:16:15.717Z,64.09
2019-01-17T04:20:20.409Z,64.39
2019-01-17T04:24:25.066Z,64.50
2019-01-17T04:28:29.769Z,64.67
2019-01-17T04:32:34.457Z,64.83
2019-01-17T04:36:39.134Z,64.80
2019-01-17T04:40:43.821Z,64.51
2019-01-17T04:44:48.502Z,64.48
2019-01-17T04:48:53.198Z,64.40
2019-01-17T04:52:57.884Z,64.49
2019-01-17T04:57:02.568Z,64.51
2019-01-17T05:01:07.265Z,64.57
2019-01-17T05:05:11.952Z,64.52
2019-01-17T05:09:16.628Z,64.36
2019-01-17T05:13:21.306Z,64.36
2019-01-17T05:17:26.010Z,64.26
2019-01-17T05:21:30.713Z,64.26
2019-01-17T05:25:35.389Z,64.19
2019-01-17T05:29:40.080Z,64.16
2019-01-17T05:33:44.763Z,64.08
2019-01-17T05:37:49.448Z,63.86
2019-01-17T05:41:54.129Z,63.91
2019-01-17T05:45:58.822Z,64.02
2019-01-17T05:50:06.111Z,64.03
2019-01-17T05:54:10.815Z,63.91
2019-01-17T05:58:15.510Z,63.90
2019-01-17T06:02:20.182Z,63.88
2019-01-17T06:06:24.868Z,63.77
2019-01-17T06:10:29.545Z,63.78
2019-01-17T06:14:34.239Z,63.50
2019-01-17T06:18:38.928Z,63.37
2019-01-17T06:22:43.597Z,63.13
2019-01-17T06:26:48.286Z,63.14
2019-01-17T06:30:52.974Z,63.30
2019-01-17T06:34:57.669Z,62.91
2019-01-17T06:39:02.353Z,62.69
2019-01-17T06:43:07.042Z,62.60
2019-01-17T06:47:11.729Z,62.53
2019-01-17T06:51:16.399Z,62.80
2019-01-17T06:55:21.088Z,62.89
2019-01-17T06:59:25.776Z,62.79
2019-01-17T07:03:30.449Z,63.10
2019-01-17T07:07:35.175Z,61.92
2019-01-17T07:11:39.896Z,61.87
2019-01-17T07:15:44.625Z,61.61
2019-01-17T07:19:49.555Z,61.37
2019-01-17T07:23:54.261Z,61.44
2019-01-17T07:27:58.990Z,61.43
2019-01-17T07:32:03.699Z,61.64
2019-01-17T07:36:08.433Z,61.50
2019-01-17T07:40:13.514Z,61.37
2019-01-17T07:44:18.201Z,61.62
2019-01-17T07:48:22.887Z,61.54
2019-01-17T07:52:27.615Z,61.34
2019-01-17T07:56:32.300Z,61.87
2019-01-17T08:00:37.010Z,62.25
2019-01-17T08:04:41.801Z,62.10
2019-01-17T08:08:46.488Z,62.05
2019-01-17T08:12:51.164Z,61.99
2019-01-17T08:16:55.842Z,62.04
2019-01-17T08:21:00.509Z,62.48
2019-01-17T08:25:08.380Z,62.66
2019-01-17T08:29:13.054Z,63.02
2019-01-17T08:33:17.730Z,62.34
2019-01-17T08:37:22.403Z,62.90
2019-01-17T08:41:27.082Z,63.05
2019-01-17T08:45:31.768Z,62.84
2019-01-17T08:49:36.454Z,62.39
2019-01-17T08:53:41.136Z,61.74
2019-01-17T08:57:45.819Z,61.37
2019-01-17T09:01:50.476Z,60.90
2019-01-17T09:05:55.160Z,60.90
2019-01-17T09:09:59.831Z,62.19
2019-01-17T09:14:04.882Z,60.39
2019-01-17T09:18:09.553Z,60.25
2019-01-17T09:22:14.232Z,59.98
2019-01-17T09:26:19.896Z,59.76
2019-01-17T09:30:24.573Z,59.93
2019-01-17T09:34:29.252Z,59.20
2019-01-17T09:38:33.940Z,59.16
2019-01-17T09:42:38.602Z,59.07
2019-01-17T09:46:43.286Z,59.10
2019-01-17T09:50:47.971Z,59.21
2019-01-17T09:54:52.651Z,58.76
2019-01-17T09:58:57.340Z,58.70
2019-01-17T10:03:02.007Z,58.76
2019-01-17T10:07:06.697Z,57.67
2019-01-17T10:11:11.381Z,57.08
2019-01-17T10:15:28.433Z,55.92
2019-01-17T10:19:42.327Z,55.54
2019-01-17T10:23:52.929Z,55.71
2019-01-17T10:28:17.145Z,54.89
2019-01-17T10:32:39.443Z,54.46
2019-01-17T10:37:04.025Z,55.55
2019-01-17T10:41:17.549Z,55.41
2019-01-17T10:45:36.807Z,56.08
2019-01-17T10:49:47.460Z,55.84
2019-01-17T10:54:10.238Z,55.84
2019-01-17T10:58:23.854Z,56.49
2019-01-17T11:02:58.806Z,56.41
2019-01-17T11:07:15.812Z,55.69
2019-01-17T11:11:35.053Z,53.94
2019-01-17T11:16:02.526Z,53.79
2019-01-17T11:20:31.892Z,53.39
2019-01-17T11:24:42.344Z,53.90
2019-01-17T11:28:56.139Z,54.24
2019-01-17T11:33:23.406Z,53.41
2019-01-17T11:37:34.077Z,53.53
2019-01-17T11:41:47.699Z,53.11
2019-01-17T11:46:04.472Z,52.88
2019-01-17T11:50:15.381Z,52.90
2019-01-17T11:54:47.218Z,52.41
2019-01-17T11:59:13.339Z,52.62
2019-01-17T12:03:33.271Z,53.19
2019-01-17T12:07:37.953Z,53.73
2019-01-17T12:11:42.633Z,53.74
2019-01-17T12:15:47.638Z,53.98
2019-01-17T12:19:52.326Z,53.72
2019-01-17T12:23:57.191Z,53.70
2019-01-17T12:28:01.879Z,53.69
2019-01-17T12:32:06.561Z,53.96
2019-01-17T12:36:11.242Z,54.33
2019-01-17T12:40:15.934Z,55.02
2019-01-17T12:44:20.722Z,55.33
2019-01-17T12:48:25.410Z,54.98
2019-01-17T12:52:30.099Z,54.98
2019-01-17T12:56:34.771Z,54.69
2019-01-17T13:00:39.453Z,53.79
2019-01-17T13:04:44.133Z,52.73
2019-01-17T13:08:48.815Z,53.23
2019-01-17T13:12:53.480Z,52.87
2019-01-17T13:16:58.162Z,53.08
2019-01-17T13:21:02.844Z,53.05
2019-01-17T13:25:13.656Z,52.48
2019-01-17T13:29:18.341Z,51.80
2019-01-17T13:33:23.009Z,52.21
2019-01-17T13:37:27.686Z,52.07
2019-01-17T13:41:32.366Z,52.10
2019-01-17T13:45:37.043Z,51.81
2019-01-17T13:49:41.727Z,51.68
2019-01-17T13:53:46.394Z,51.86
2019-01-17T13:57:51.069Z,51.98
2019-01-17T14:01:55.739Z,52.25
2019-01-17T14:06:00.418Z,52.28
2019-01-17T14:10:10.594Z,52.50
2019-01-17T14:14:15.262Z,52.22
2019-01-17T14:18:19.941Z,52.32
2019-01-17T14:22:24.629Z,52.45
2019-01-17T14:26:29.303Z,54.17
2019-01-17T14:30:34.648Z,56.41
2019-01-17T14:34:39.319Z,58.43
2019-01-17T14:38:45.383Z,59.05
2019-01-17T14:42:50.160Z,59.37
2019-01-17T14:46:54.840Z,59.60
2019-01-17T14:50:59.518Z,59.92
2019-01-17T14:55:06.630Z,60.22
2019-01-17T14:59:11.315Z,60.41
2019-01-17T15:03:15.994Z,60.22
2019-01-17T15:07:20.676Z,60.07
2019-01-17T15:11:26.168Z,59.98
2019-01-17T15:15:30.839Z,59.94
2019-01-17T15:19:35.515Z,60.21
2019-01-17T15:23:40.189Z,59.97
2019-01-17T15:27:44.873Z,59.90
2019-01-17T15:31:49.555Z,60.21
2019-01-17T15:35:54.232Z,60.31
2019-01-17T15:39:58.915Z,60.52
2019-01-17T15:44:03.603Z,60.58
2019-01-17T15:48:08.296Z,60.61
2019-01-17T15:52:12.973Z,60.47
2019-01-17T15:56:17.640Z,60.33
2019-01-17T16:00:25.218Z,60.44
2019-01-17T16:04:29.891Z,60.49
2019-01-17T16:08:34.575Z,60.86
2019-01-17T16:12:39.275Z,60.43
2019-01-17T16:16:48.260Z,60.46
2019-01-17T16:20:50.339Z,60.42
2019-01-17T16:24:55.009Z,60.04
2019-01-17T16:28:59.690Z,60.20
2019-01-17T16:33:04.366Z,60.17
2019-01-17T16:37:09.042Z,60.46
2019-01-17T16:41:13.711Z,60.59
2019-01-17T16:45:20.732Z,60.88
2019-01-17T16:49:26.486Z,61.00
2019-01-17T16:53:31.212Z,61.38
2019-01-17T16:57:35.878Z,61.40
2019-01-17T17:01:40.559Z,61.75
2019-01-17T17:05:45.237Z,61.81
2019-01-17T17:09:49.911Z,61.56
2019-01-17T17:13:54.589Z,61.43
2019-01-17T17:17:59.259Z,60.92
2019-01-17T17:22:03.953Z,61.04
2019-01-17T17:26:08.624Z,61.23
2019-01-17T17:30:16.302Z,60.90
2019-01-17T17:34:20.980Z,60.49
2019-01-17T17:38:25.660Z,60.87
2019-01-17T17:42:30.328Z,61.02
2019-01-17T17:46:35.003Z,61.27
2019-01-17T17:50:39.715Z,61.34
2019-01-17T17:54:44.397Z,61.45
2019-01-17T17:58:49.067Z,61.81
2019-01-17T18:02:54.325Z,61.47
2019-01-17T18:06:59.017Z,60.68
2019-01-17T18:11:03.709Z,60.41
2019-01-17T18:15:11.597Z,59.79
2019-01-17T18:19:16.264Z,62.08
2019-01-17T18:23:20.939Z,61.71
2019-01-17T18:27:25.615Z,59.11
2019-01-17T18:31:30.291Z,59.45
2019-01-17T18:35:34.958Z,59.43
2019-01-17T18:39:39.638Z,59.59
2019-01-17T18:43:44.314Z,59.25
2019-01-17T18:47:48.991Z,59.46
2019-01-17T18:51:53.670Z,59.33
2019-01-17T18:55:58.399Z,58.83
2019-01-17T19:00:04.708Z,58.81
2019-01-17T19:04:09.547Z,58.72
2019-01-17T19:08:14.222Z,59.04
2019-01-17T19:12:18.904Z,59.17
2019-01-17T19:16:23.583Z,59.09
2019-01-17T19:20:28.257Z,58.45
2019-01-17T19:24:32.926Z,58.80
2019-01-17T19:28:37.607Z,59.16
2019-01-17T19:32:42.288Z,59.62
2019-01-17T19:36:46.950Z,59.74
2019-01-17T19:40:51.630Z,59.73
2019-01-17T19:44:56.302Z,59.86
2019-01-17T19:49:00.982Z,60.19
2019-01-17T19:53:05.730Z,60.15
2019-01-17T19:57:10.403Z,60.24
2019-01-17T20:01:15.263Z,60.35
2019-01-17T20:05:22.284Z,60.51
2019-01-17T20:09:26.967Z,60.60
2019-01-17T20:13:31.654Z,60.58
2019-01-17T20:17:36.318Z,60.25
2019-01-17T20:21:41.009Z,60.33
2019-01-17T20:25:45.693Z,60.02
2019-01-17T20:29:50.370Z,59.76
2019-01-17T20:33:55.045Z,59.67
2019-01-17T20:37:59.721Z,59.45
2019-01-17T20:42:04.462Z,59.50
2019-01-17T20:46:09.144Z,59.14
2019-01-17T20:50:19.756Z,59.13
2019-01-17T20:54:24.439Z,59.36
2019-01-17T20:58:29.173Z,58.58
2019-01-17T21:02:33.854Z,58.64
2019-01-17T21:06:38.530Z,58.42
2019-01-17T21:10:43.214Z,58.21
2019-01-17T21:14:47.892Z,60.94
2019-01-17T21:18:52.557Z,57.88
2019-01-17T21:22:57.230Z,57.92
2019-01-17T21:27:01.910Z,57.82
2019-01-17T21:31:06.584Z,57.84
2019-01-17T21:35:11.734Z,57.98
2019-01-17T21:39:16.395Z,58.27
2019-01-17T21:43:21.070Z,58.48
2019-01-17T21:47:25.741Z,58.70
2019-01-17T21:51:30.417Z,58.73
2019-01-17T21:55:35.089Z,58.87
2019-01-17T21:59:39.753Z,59.02
2019-01-17T22:03:44.440Z,59.07
2019-01-17T22:07:49.179Z,59.08
2019-01-17T22:11:53.861Z,59.14
2019-01-17T22:15:58.534Z,59.56
2019-01-17T22:20:03.766Z,59.79
2019-01-17T22:24:08.442Z,60.04
2019-01-17T22:28:13.122Z,60.25
2019-01-17T22:32:17.801Z,60.34
2019-01-17T22:36:22.474Z,60.48
2019-01-17T22:40:27.148Z,60.71
2019-01-17T22:44:33.072Z,60.53
2019-01-17T22:48:37.755Z,60.51
2019-01-17T22:52:42.432Z,60.09
2019-01-17T22:56:47.111Z,60.30
2019-01-17T23:00:56.673Z,60.41
2019-01-17T23:05:01.348Z,60.28
2019-01-17T23:09:06.897Z,60.49
2019-01-17T23:13:12.537Z,60.83
2019-01-17T23:17:17.214Z,60.70
2019-01-17T23:21:21.880Z,60.76
2019-01-17T23:25:26.552Z,60.66
2019-01-17T23:29:31.230Z,60.67
2019-01-17T23:33:35.909Z,60.46
2019-01-17T23:37:40.586Z,59.81
2019-01-17T23:41:45.253Z,59.38
2019-01-17T23:45:49.922Z,59.45
2019-01-17T23:49:54.598Z,59.59
2019-01-17T23:53:59.274Z,59.83
2019-01-17T23:58:03.951Z,59.88
